createdAt,value
2017-09-06T00:00:30.679Z,18.60
2017-09-06T00:01:33.242Z,18.60
2017-09-06T00:02:35.767Z,18.60
2017-09-06T00:03:38.253Z,18.60
2017-09-06T00:04:40.731Z,18.60
2017-09-06T00:05:43.236Z,18.60
2017-09-06T00:06:45.808Z,18.50
2017-09-06T00:07:48.315Z,18.50
2017-09-06T00:08:50.803Z,18.50
2017-09-06T00:09:54.171Z,18.50
2017-09-06T00:10:56.653Z,18.50
2017-09-06T00:11:59.165Z,18.50
2017-09-06T00:13:01.662Z,18.40
2017-09-06T00:14:04.153Z,18.40
2017-09-06T00:15:06.670Z,18.40
2017-09-06T00:16:09.157Z,18.40
2017-09-06T00:17:11.687Z,18.40
2017-09-06T00:18:14.191Z,18.40
2017-09-06T00:19:16.703Z,18.40
2017-09-06T00:20:19.174Z,18.40
2017-09-06T00:21:21.666Z,18.40
2017-09-06T00:22:24.147Z,18.40
2017-09-06T00:23:26.671Z,18.40
2017-09-06T00:24:29.161Z,18.40
2017-09-06T00:25:31.663Z,18.40
2017-09-06T00:26:34.155Z,18.40
2017-09-06T00:27:36.670Z,18.40
2017-09-06T00:28:39.188Z,18.40
2017-09-06T00:29:41.664Z,18.40
2017-09-06T00:30:44.159Z,18.40
2017-09-06T00:31:47.418Z,18.40
2017-09-06T00:32:49.919Z,18.40
2017-09-06T00:33:52.414Z,18.40
2017-09-06T00:34:55.468Z,18.40
2017-09-06T00:35:58.390Z,18.40
2017-09-06T00:37:00.951Z,18.40
2017-09-06T00:38:03.449Z,18.40
2017-09-06T00:39:05.933Z,18.40
2017-09-06T00:40:08.436Z,18.40
2017-09-06T00:41:10.932Z,18.40
2017-09-06T00:42:14.245Z,18.40
2017-09-06T00:43:16.778Z,18.40
2017-09-06T00:44:19.266Z,18.40
2017-09-06T00:45:21.803Z,18.30
2017-09-06T00:46:24.327Z,18.40
2017-09-06T00:47:26.811Z,18.30
2017-09-06T00:48:29.311Z,18.40
2017-09-06T00:49:31.854Z,18.30
2017-09-06T00:50:34.474Z,18.40
2017-09-06T00:51:37.023Z,18.30
2017-09-06T00:52:39.527Z,18.30
2017-09-06T00:53:42.083Z,18.30
2017-09-06T00:54:44.646Z,18.30
2017-09-06T00:55:47.903Z,18.30
2017-09-06T00:56:50.459Z,18.30
2017-09-06T00:57:52.980Z,18.30
2017-09-06T00:58:55.482Z,18.30
2017-09-06T00:59:58.562Z,18.30
2017-09-06T01:01:05.103Z,18.30
2017-09-06T01:02:07.601Z,18.30
2017-09-06T01:03:10.188Z,18.30
2017-09-06T01:04:13.511Z,18.30
2017-09-06T01:05:16.027Z,18.30
2017-09-06T01:06:18.578Z,18.30
2017-09-06T01:07:21.065Z,18.20
2017-09-06T01:08:23.605Z,18.20
2017-09-06T01:09:26.094Z,18.20
2017-09-06T01:10:28.603Z,18.20
2017-09-06T01:11:31.135Z,18.30
2017-09-06T01:12:33.634Z,18.20
2017-09-06T01:13:36.182Z,18.20
2017-09-06T01:14:39.506Z,18.20
2017-09-06T01:15:41.998Z,18.20
2017-09-06T01:16:44.503Z,18.20
2017-09-06T01:17:47.002Z,18.20
2017-09-06T01:18:49.538Z,18.30
2017-09-06T01:19:52.046Z,18.30
2017-09-06T01:20:54.561Z,18.30
2017-09-06T01:21:57.087Z,18.20
2017-09-06T01:22:59.980Z,18.20
2017-09-06T01:24:02.484Z,18.30
2017-09-06T01:25:05.003Z,18.20
2017-09-06T01:26:07.497Z,18.20
2017-09-06T01:27:10.022Z,18.20
2017-09-06T01:28:12.515Z,18.20
2017-09-06T01:29:19.234Z,18.20
2017-09-06T01:30:21.744Z,18.20
2017-09-06T01:31:24.250Z,18.20
2017-09-06T01:32:31.831Z,18.20
2017-09-06T01:33:35.099Z,18.20
2017-09-06T01:34:37.987Z,18.20
2017-09-06T01:35:40.955Z,18.20
2017-09-06T01:36:44.243Z,18.20
2017-09-06T01:37:46.766Z,18.20
2017-09-06T01:38:49.295Z,18.20
2017-09-06T01:39:52.715Z,18.20
2017-09-06T01:40:55.253Z,18.20
2017-09-06T01:41:57.743Z,18.20
2017-09-06T01:43:00.323Z,18.20
2017-09-06T01:44:02.838Z,18.20
2017-09-06T01:45:05.351Z,18.20
2017-09-06T01:46:07.852Z,18.20
2017-09-06T01:47:10.383Z,18.20
2017-09-06T01:48:12.886Z,18.20
2017-09-06T01:49:15.419Z,18.20
2017-09-06T01:50:17.924Z,18.20
2017-09-06T01:51:20.453Z,18.20
2017-09-06T01:52:22.959Z,18.10
2017-09-06T01:53:25.483Z,18.10
2017-09-06T01:54:27.997Z,18.10
2017-09-06T01:55:30.545Z,18.10
2017-09-06T01:56:33.049Z,18.10
2017-09-06T01:57:35.569Z,18.10
2017-09-06T01:58:38.146Z,18.10
2017-09-06T01:59:40.646Z,18.10
2017-09-06T02:00:43.299Z,18.00
2017-09-06T02:01:45.821Z,18.00
2017-09-06T02:02:48.661Z,18.00
2017-09-06T02:03:51.179Z,18.00
2017-09-06T02:04:53.687Z,17.90
2017-09-06T02:05:56.191Z,18.00
2017-09-06T02:06:58.949Z,18.00
2017-09-06T02:08:01.431Z,18.00
2017-09-06T02:09:03.942Z,17.90
2017-09-06T02:10:06.427Z,18.00
2017-09-06T02:11:08.942Z,18.00
2017-09-06T02:12:11.704Z,17.90
2017-09-06T02:13:14.191Z,17.90
2017-09-06T02:14:16.703Z,17.90
2017-09-06T02:15:19.183Z,17.90
2017-09-06T02:16:21.699Z,17.80
2017-09-06T02:17:24.213Z,17.80
2017-09-06T02:18:26.714Z,17.80
2017-09-06T02:19:29.207Z,17.70
2017-09-06T02:20:35.671Z,17.80
2017-09-06T02:21:38.200Z,17.80
2017-09-06T02:22:40.757Z,17.80
2017-09-06T02:23:43.342Z,17.80
2017-09-06T02:24:45.843Z,17.80
2017-09-06T02:25:48.425Z,17.80
2017-09-06T02:26:50.960Z,17.80
2017-09-06T02:27:53.491Z,17.80
2017-09-06T02:28:56.005Z,17.80
2017-09-06T02:29:58.615Z,17.80
2017-09-06T02:31:01.199Z,17.90
2017-09-06T02:32:03.728Z,17.90
2017-09-06T02:33:06.270Z,17.90
2017-09-06T02:34:08.772Z,17.80
2017-09-06T02:35:11.282Z,17.80
2017-09-06T02:36:13.770Z,17.70
2017-09-06T02:37:16.313Z,17.70
2017-09-06T02:38:18.826Z,17.70
2017-09-06T02:39:21.327Z,17.60
2017-09-06T02:40:23.811Z,17.50
2017-09-06T02:41:26.293Z,17.40
2017-09-06T02:42:28.800Z,17.40
2017-09-06T02:43:31.555Z,17.30
2017-09-06T02:44:34.071Z,17.30
2017-09-06T02:45:36.654Z,17.20
2017-09-06T02:46:39.190Z,17.20
2017-09-06T02:47:41.734Z,17.10
2017-09-06T02:48:45.137Z,17.00
2017-09-06T02:49:47.647Z,17.00
2017-09-06T02:50:50.140Z,17.00
2017-09-06T02:51:52.638Z,16.90
2017-09-06T02:52:55.145Z,16.90
2017-09-06T02:53:57.683Z,16.90
2017-09-06T02:55:00.530Z,16.90
2017-09-06T02:56:03.035Z,16.80
2017-09-06T02:57:05.575Z,16.80
2017-09-06T02:58:08.066Z,16.80
2017-09-06T02:59:10.592Z,16.70
2017-09-06T03:00:13.095Z,16.80
2017-09-06T03:01:15.710Z,16.80
2017-09-06T03:02:18.208Z,16.70
2017-09-06T03:03:20.703Z,16.70
2017-09-06T03:04:23.230Z,16.70
2017-09-06T03:05:25.716Z,16.60
2017-09-06T03:06:28.221Z,16.60
2017-09-06T03:07:30.701Z,16.60
2017-09-06T03:08:34.155Z,16.60
2017-09-06T03:09:36.695Z,16.60
2017-09-06T03:10:39.255Z,16.60
2017-09-06T03:11:41.758Z,16.60
2017-09-06T03:12:48.202Z,16.60
2017-09-06T03:13:50.799Z,16.60
2017-09-06T03:14:53.365Z,16.70
2017-09-06T03:15:55.911Z,16.70
2017-09-06T03:16:58.472Z,16.70
2017-09-06T03:18:00.990Z,16.80
2017-09-06T03:19:03.566Z,16.80
2017-09-06T03:20:06.633Z,16.80
2017-09-06T03:21:09.145Z,16.90
2017-09-06T03:22:11.674Z,16.90
2017-09-06T03:23:14.167Z,16.90
2017-09-06T03:24:16.684Z,16.90
2017-09-06T03:25:19.182Z,17.00
2017-09-06T03:26:21.739Z,17.10
2017-09-06T03:27:24.253Z,17.10
2017-09-06T03:28:31.119Z,17.10
2017-09-06T03:29:33.615Z,17.10
2017-09-06T03:30:36.131Z,17.20
2017-09-06T03:31:38.622Z,17.20
2017-09-06T03:32:41.117Z,17.20
2017-09-06T03:33:44.439Z,17.30
2017-09-06T03:34:46.938Z,17.30
2017-09-06T03:35:49.435Z,17.30
2017-09-06T03:36:51.988Z,17.30
2017-09-06T03:37:54.519Z,17.30
2017-09-06T03:38:57.030Z,17.20
2017-09-06T03:39:59.654Z,17.20
2017-09-06T03:41:02.759Z,17.20
2017-09-06T03:42:05.247Z,17.20
2017-09-06T03:43:07.799Z,17.20
2017-09-06T03:44:14.274Z,17.20
2017-09-06T03:45:17.447Z,17.20
2017-09-06T03:46:20.015Z,17.20
2017-09-06T03:47:22.539Z,17.10
2017-09-06T03:48:25.041Z,17.10
2017-09-06T03:49:27.574Z,17.10
2017-09-06T03:50:34.018Z,17.10
2017-09-06T03:51:36.564Z,17.10
2017-09-06T03:52:39.815Z,17.10
2017-09-06T03:53:42.308Z,17.20
2017-09-06T03:54:44.795Z,17.20
2017-09-06T03:55:47.303Z,17.20
2017-09-06T03:56:49.806Z,17.20
2017-09-06T03:57:52.998Z,17.20
2017-09-06T03:58:55.499Z,17.20
2017-09-06T03:59:57.998Z,17.20
2017-09-06T04:01:00.511Z,17.20
2017-09-06T04:02:03.034Z,17.20
2017-09-06T04:03:05.535Z,17.20
2017-09-06T04:04:08.055Z,17.10
2017-09-06T04:05:10.582Z,17.20
2017-09-06T04:06:13.111Z,17.20
2017-09-06T04:07:15.655Z,17.10
2017-09-06T04:08:18.159Z,17.10
2017-09-06T04:09:20.654Z,17.10
2017-09-06T04:10:23.152Z,17.10
2017-09-06T04:11:25.679Z,17.10
2017-09-06T04:12:28.183Z,17.10
2017-09-06T04:13:30.678Z,17.10
2017-09-06T04:14:33.154Z,17.10
2017-09-06T04:15:35.682Z,17.10
2017-09-06T04:16:38.178Z,17.10
2017-09-06T04:17:40.706Z,17.10
2017-09-06T04:18:43.200Z,17.10
2017-09-06T04:19:45.714Z,17.10
2017-09-06T04:20:48.207Z,17.20
2017-09-06T04:21:54.639Z,17.20
2017-09-06T04:22:57.358Z,17.20
2017-09-06T04:23:59.859Z,17.20
2017-09-06T04:25:02.422Z,17.30
2017-09-06T04:26:04.918Z,17.30
2017-09-06T04:27:07.409Z,17.30
2017-09-06T04:28:10.030Z,17.30
2017-09-06T04:29:12.527Z,17.30
2017-09-06T04:30:15.020Z,17.30
2017-09-06T04:31:17.533Z,17.30
2017-09-06T04:32:20.038Z,17.30
2017-09-06T04:33:22.574Z,17.30
2017-09-06T04:34:25.558Z,17.30
2017-09-06T04:35:32.347Z,17.30
2017-09-06T04:36:34.823Z,17.30
2017-09-06T04:37:38.230Z,17.30
2017-09-06T04:38:40.739Z,17.30
2017-09-06T04:39:43.551Z,17.40
2017-09-06T04:40:46.595Z,17.40
2017-09-06T04:41:49.082Z,17.40
2017-09-06T04:42:51.579Z,17.40
2017-09-06T04:43:54.075Z,17.40
2017-09-06T04:44:57.062Z,17.50
2017-09-06T04:45:59.587Z,17.50
2017-09-06T04:47:02.090Z,17.50
2017-09-06T04:48:04.579Z,17.50
2017-09-06T04:49:07.074Z,17.50
2017-09-06T04:50:09.588Z,17.50
2017-09-06T04:51:12.104Z,17.50
2017-09-06T04:52:14.662Z,17.50
2017-09-06T04:53:17.285Z,17.50
2017-09-06T04:54:23.532Z,17.40
2017-09-06T04:55:26.917Z,17.50
2017-09-06T04:56:29.565Z,17.40
2017-09-06T04:57:32.075Z,17.50
2017-09-06T04:58:34.564Z,17.50
2017-09-06T04:59:37.061Z,17.40
2017-09-06T05:00:39.926Z,17.40
2017-09-06T05:01:42.418Z,17.40
2017-09-06T05:02:49.098Z,17.40
2017-09-06T05:03:51.579Z,17.40
2017-09-06T05:04:54.063Z,17.30
2017-09-06T05:05:56.577Z,17.30
2017-09-06T05:06:59.811Z,17.30
2017-09-06T05:08:02.383Z,17.30
2017-09-06T05:09:05.126Z,17.30
2017-09-06T05:10:07.639Z,17.30
2017-09-06T05:11:10.187Z,17.30
2017-09-06T05:12:12.838Z,17.30
2017-09-06T05:13:15.403Z,17.30
2017-09-06T05:14:17.927Z,17.30
2017-09-06T05:15:20.430Z,17.40
2017-09-06T05:16:22.951Z,17.40
2017-09-06T05:17:25.482Z,17.30
2017-09-06T05:18:28.570Z,17.40
2017-09-06T05:19:31.058Z,17.40
2017-09-06T05:20:33.542Z,17.40
2017-09-06T05:21:36.058Z,17.40
2017-09-06T05:22:38.540Z,17.40
2017-09-06T05:23:41.035Z,17.40
2017-09-06T05:24:43.530Z,17.40
2017-09-06T05:25:46.019Z,17.40
2017-09-06T05:26:48.523Z,17.40
2017-09-06T05:27:51.098Z,17.40
2017-09-06T05:28:53.639Z,17.40
2017-09-06T05:29:56.711Z,17.40
2017-09-06T05:30:59.230Z,17.40
2017-09-06T05:32:01.707Z,17.50
2017-09-06T05:33:04.250Z,17.50
2017-09-06T05:34:06.729Z,17.50
2017-09-06T05:35:09.251Z,17.50
2017-09-06T05:36:11.757Z,17.50
2017-09-06T05:37:14.248Z,17.50
2017-09-06T05:38:16.737Z,17.60
2017-09-06T05:39:19.229Z,17.60
2017-09-06T05:40:22.002Z,17.60
2017-09-06T05:41:24.492Z,17.60
2017-09-06T05:42:26.975Z,17.60
2017-09-06T05:43:29.498Z,17.60
2017-09-06T05:44:31.978Z,17.60
2017-09-06T05:45:34.500Z,17.70
2017-09-06T05:46:37.907Z,17.60
2017-09-06T05:47:40.419Z,17.70
2017-09-06T05:48:42.943Z,17.70
2017-09-06T05:49:45.428Z,17.70
2017-09-06T05:50:47.919Z,17.70
2017-09-06T05:51:50.421Z,17.70
2017-09-06T05:52:52.912Z,17.70
2017-09-06T05:53:55.428Z,17.70
2017-09-06T05:54:57.914Z,17.70
2017-09-06T05:56:00.397Z,17.70
2017-09-06T05:57:02.895Z,17.80
2017-09-06T05:58:05.423Z,17.80
2017-09-06T05:59:07.988Z,17.80
2017-09-06T06:00:10.526Z,17.80
2017-09-06T06:01:13.035Z,17.90
2017-09-06T06:02:15.514Z,17.90
2017-09-06T06:03:18.008Z,18.00
2017-09-06T06:04:20.526Z,18.00
2017-09-06T06:05:27.183Z,18.10
2017-09-06T06:06:29.666Z,18.20
2017-09-06T06:07:32.139Z,18.20
2017-09-06T06:08:34.649Z,18.20
2017-09-06T06:09:37.152Z,18.30
2017-09-06T06:10:39.634Z,18.30
2017-09-06T06:11:42.153Z,18.40
2017-09-06T06:12:44.658Z,18.50
2017-09-06T06:13:47.205Z,18.50
2017-09-06T06:14:49.706Z,18.60
2017-09-06T06:15:52.335Z,18.60
2017-09-06T06:16:55.581Z,18.70
2017-09-06T06:17:58.078Z,18.70
2017-09-06T06:19:00.570Z,18.70
2017-09-06T06:20:07.131Z,18.70
2017-09-06T06:21:10.376Z,18.70
2017-09-06T06:22:17.133Z,18.60
2017-09-06T06:23:19.629Z,18.60
2017-09-06T06:24:22.123Z,18.60
2017-09-06T06:25:24.646Z,18.60
2017-09-06T06:26:27.123Z,18.60
2017-09-06T06:27:29.617Z,18.60
2017-09-06T06:28:32.119Z,18.60
2017-09-06T06:29:34.609Z,18.60
2017-09-06T06:30:37.080Z,18.60
2017-09-06T06:31:39.579Z,18.50
2017-09-06T06:32:42.096Z,18.50
2017-09-06T06:33:44.670Z,18.50
2017-09-06T06:34:47.954Z,18.50
2017-09-06T06:35:50.434Z,18.50
2017-09-06T06:36:52.906Z,18.50
2017-09-06T06:37:55.416Z,18.50
2017-09-06T06:38:57.921Z,18.40
2017-09-06T06:40:00.392Z,18.40
2017-09-06T06:41:02.888Z,18.40
2017-09-06T06:42:05.420Z,18.30
2017-09-06T06:43:07.951Z,18.40
2017-09-06T06:44:12.161Z,18.40
2017-09-06T06:45:14.771Z,18.40
2017-09-06T06:46:17.326Z,18.40
2017-09-06T06:47:19.834Z,18.30
2017-09-06T06:48:22.339Z,18.40
2017-09-06T06:49:24.877Z,18.40
2017-09-06T06:50:28.170Z,18.40
2017-09-06T06:51:30.711Z,18.40
2017-09-06T06:52:33.250Z,18.40
2017-09-06T06:53:35.788Z,18.40
2017-09-06T06:54:38.278Z,18.40
2017-09-06T06:55:40.782Z,18.40
2017-09-06T06:56:43.271Z,18.50
2017-09-06T06:57:45.782Z,18.50
2017-09-06T06:58:48.474Z,18.60
2017-09-06T06:59:55.706Z,18.60
2017-09-06T07:00:58.217Z,18.60
2017-09-06T07:02:00.700Z,18.70
2017-09-06T07:03:03.200Z,18.70
2017-09-06T07:04:05.718Z,18.70
2017-09-06T07:05:09.253Z,18.70
2017-09-06T07:06:11.829Z,18.70
2017-09-06T07:07:14.329Z,18.70
2017-09-06T07:08:16.889Z,18.60
2017-09-06T07:09:19.417Z,18.60
2017-09-06T07:10:22.482Z,18.60
2017-09-06T07:11:24.962Z,18.60
2017-09-06T07:12:28.458Z,18.50
2017-09-06T07:13:30.970Z,18.50
2017-09-06T07:14:33.448Z,18.40
2017-09-06T07:15:36.800Z,18.40
2017-09-06T07:16:40.074Z,18.40
2017-09-06T07:17:42.623Z,18.40
2017-09-06T07:18:45.121Z,18.40
2017-09-06T07:19:47.650Z,18.40
2017-09-06T07:20:50.196Z,18.40
2017-09-06T07:21:52.681Z,18.30
2017-09-06T07:22:55.282Z,18.30
2017-09-06T07:23:57.798Z,18.30
2017-09-06T07:25:01.030Z,18.30
2017-09-06T07:26:03.503Z,18.30
2017-09-06T07:27:05.987Z,18.30
2017-09-06T07:28:08.495Z,18.30
2017-09-06T07:29:11.668Z,18.30
2017-09-06T07:30:15.280Z,18.40
2017-09-06T07:31:17.860Z,18.40
2017-09-06T07:32:20.426Z,18.50
2017-09-06T07:33:22.986Z,18.60
2017-09-06T07:34:26.216Z,18.70
2017-09-06T07:35:28.791Z,18.90
2017-09-06T07:36:31.326Z,19.00
2017-09-06T07:37:33.857Z,19.10
2017-09-06T07:38:36.346Z,19.20
2017-09-06T07:39:38.860Z,19.40
2017-09-06T07:40:41.363Z,19.50
2017-09-06T07:41:43.896Z,19.60
2017-09-06T07:42:46.402Z,19.70
2017-09-06T07:43:48.942Z,19.70
2017-09-06T07:44:51.427Z,19.80
2017-09-06T07:45:53.946Z,19.80
2017-09-06T07:46:56.481Z,19.80
2017-09-06T07:47:59.004Z,19.80
2017-09-06T07:49:01.562Z,19.80
2017-09-06T07:50:04.103Z,19.80
2017-09-06T07:51:14.648Z,19.80
2017-09-06T07:52:17.151Z,19.80
2017-09-06T07:53:19.650Z,19.80
2017-09-06T07:54:23.315Z,19.80
2017-09-06T07:55:25.810Z,19.70
2017-09-06T07:56:28.316Z,19.60
2017-09-06T07:57:30.793Z,19.60
2017-09-06T07:58:34.315Z,19.40
2017-09-06T07:59:36.797Z,19.40
2017-09-06T08:00:43.116Z,19.30
2017-09-06T08:01:45.680Z,19.30
2017-09-06T08:02:48.246Z,19.30
2017-09-06T08:03:51.409Z,19.20
2017-09-06T08:04:53.928Z,19.20
2017-09-06T08:05:56.438Z,19.20
2017-09-06T08:07:04.546Z,19.20
2017-09-06T08:08:07.040Z,19.20
2017-09-06T08:09:11.320Z,19.10
2017-09-06T08:10:14.756Z,19.20
2017-09-06T08:11:17.296Z,19.30
2017-09-06T08:12:19.827Z,19.40
2017-09-06T08:13:22.468Z,19.60
2017-09-06T08:14:24.991Z,19.70
2017-09-06T08:15:27.508Z,19.90
2017-09-06T08:16:30.034Z,20.00
2017-09-06T08:17:32.532Z,20.20
2017-09-06T08:18:35.039Z,20.30
2017-09-06T08:19:38.273Z,20.50
2017-09-06T08:20:40.784Z,20.60
2017-09-06T08:21:43.298Z,20.70
2017-09-06T08:22:45.791Z,20.70
2017-09-06T08:23:52.162Z,20.60
2017-09-06T08:24:54.698Z,20.50
2017-09-06T08:25:57.219Z,20.40
2017-09-06T08:26:59.786Z,20.30
2017-09-06T08:28:02.255Z,20.10
2017-09-06T08:29:04.761Z,20.00
2017-09-06T08:30:07.267Z,19.90
2017-09-06T08:31:09.912Z,19.80
2017-09-06T08:32:16.397Z,19.60
2017-09-06T08:33:18.867Z,19.60
2017-09-06T08:34:21.372Z,19.50
2017-09-06T08:35:23.903Z,19.30
2017-09-06T08:36:26.406Z,19.30
2017-09-06T08:37:33.106Z,19.20
2017-09-06T08:38:35.612Z,19.10
2017-09-06T08:39:38.131Z,19.10
2017-09-06T08:40:40.610Z,19.10
2017-09-06T08:41:43.155Z,19.00
2017-09-06T08:42:45.716Z,19.10
2017-09-06T08:43:48.206Z,19.10
2017-09-06T08:44:50.762Z,19.10
2017-09-06T08:45:53.323Z,19.10
2017-09-06T08:46:55.832Z,19.10
2017-09-06T08:47:59.103Z,19.10
2017-09-06T08:49:01.583Z,19.10
2017-09-06T08:50:04.083Z,19.20
2017-09-06T08:51:06.579Z,19.10
2017-09-06T08:52:09.495Z,19.10
2017-09-06T08:53:12.828Z,19.00
2017-09-06T08:54:15.738Z,18.90
2017-09-06T08:55:18.273Z,18.80
2017-09-06T08:56:20.871Z,18.70
2017-09-06T08:57:23.439Z,18.60
2017-09-06T08:58:25.949Z,18.50
2017-09-06T08:59:28.569Z,18.50
2017-09-06T09:00:35.321Z,18.40
2017-09-06T09:01:37.824Z,18.40
2017-09-06T09:02:40.354Z,18.40
2017-09-06T09:03:42.855Z,18.30
2017-09-06T09:04:45.384Z,18.40
2017-09-06T09:05:48.956Z,18.40
2017-09-06T09:06:52.323Z,18.50
2017-09-06T09:07:54.863Z,18.60
2017-09-06T09:08:57.362Z,18.80
2017-09-06T09:09:59.864Z,19.00
2017-09-06T09:11:02.353Z,19.10
2017-09-06T09:12:04.846Z,19.30
2017-09-06T09:13:08.282Z,19.40
2017-09-06T09:14:10.846Z,19.50
2017-09-06T09:15:14.747Z,19.60
2017-09-06T09:16:17.234Z,19.60
2017-09-06T09:17:19.725Z,19.60
2017-09-06T09:18:22.226Z,19.50
2017-09-06T09:19:28.960Z,19.50
2017-09-06T09:20:31.473Z,19.60
2017-09-06T09:21:34.272Z,19.60
2017-09-06T09:22:37.127Z,19.70
2017-09-06T09:23:39.774Z,19.80
2017-09-06T09:24:42.266Z,19.90
2017-09-06T09:25:44.775Z,20.00
2017-09-06T09:26:47.274Z,20.00
2017-09-06T09:27:49.892Z,20.10
2017-09-06T09:28:52.402Z,20.00
2017-09-06T09:29:55.012Z,20.00
2017-09-06T09:30:57.551Z,19.90
2017-09-06T09:32:00.067Z,19.80
2017-09-06T09:33:02.569Z,19.70
2017-09-06T09:34:05.085Z,19.70
2017-09-06T09:35:07.581Z,19.60
2017-09-06T09:36:10.895Z,19.60
2017-09-06T09:37:14.440Z,19.70
2017-09-06T09:38:16.934Z,19.80
2017-09-06T09:39:19.422Z,19.90
2017-09-06T09:40:21.949Z,20.00
2017-09-06T09:41:24.482Z,20.10
2017-09-06T09:42:27.007Z,20.20
2017-09-06T09:43:29.524Z,20.20
2017-09-06T09:44:32.106Z,20.20
2017-09-06T09:45:38.768Z,20.10
2017-09-06T09:46:41.271Z,20.10
2017-09-06T09:47:43.799Z,19.90
2017-09-06T09:48:46.290Z,19.90
2017-09-06T09:49:53.335Z,19.80
2017-09-06T09:50:55.826Z,19.80
2017-09-06T09:51:58.367Z,19.80
2017-09-06T09:53:00.882Z,19.70
2017-09-06T09:54:03.406Z,19.80
2017-09-06T09:55:05.930Z,19.70
2017-09-06T09:56:09.049Z,19.70
2017-09-06T09:57:11.608Z,19.70
2017-09-06T09:58:14.110Z,19.60
2017-09-06T09:59:16.637Z,19.60
2017-09-06T10:00:19.139Z,19.60
2017-09-06T10:01:21.666Z,19.70
2017-09-06T10:02:28.330Z,19.70
2017-09-06T10:03:30.860Z,19.90
2017-09-06T10:04:34.297Z,19.90
2017-09-06T10:05:36.850Z,20.00
2017-09-06T10:06:39.409Z,20.10
2017-09-06T10:07:47.955Z,20.10
2017-09-06T10:08:50.476Z,20.20
2017-09-06T10:09:53.055Z,20.20
2017-09-06T10:10:55.530Z,20.30
2017-09-06T10:11:58.019Z,20.30
2017-09-06T10:13:00.585Z,20.30
2017-09-06T10:14:04.439Z,20.30
2017-09-06T10:15:06.978Z,20.40
2017-09-06T10:16:09.489Z,20.40
2017-09-06T10:17:12.037Z,20.30
2017-09-06T10:18:14.575Z,20.40
2017-09-06T10:19:17.148Z,20.30
2017-09-06T10:20:20.556Z,20.30
2017-09-06T10:21:23.058Z,20.30
2017-09-06T10:22:25.561Z,20.20
2017-09-06T10:23:28.085Z,20.10
2017-09-06T10:24:34.682Z,20.10
2017-09-06T10:25:37.181Z,20.00
2017-09-06T10:26:39.682Z,20.00
2017-09-06T10:27:42.167Z,20.10
2017-09-06T10:28:44.714Z,20.20
2017-09-06T10:29:47.262Z,20.10
2017-09-06T10:30:49.825Z,20.10
2017-09-06T10:31:52.343Z,20.10
2017-09-06T10:32:54.824Z,20.10
2017-09-06T10:33:57.351Z,20.10
2017-09-06T10:34:59.878Z,20.10
2017-09-06T10:36:02.374Z,20.00
2017-09-06T10:37:04.889Z,20.00
2017-09-06T10:38:07.414Z,19.80
2017-09-06T10:39:09.912Z,19.70
2017-09-06T10:40:12.437Z,19.70
2017-09-06T10:41:15.561Z,19.60
2017-09-06T10:42:18.799Z,19.60
2017-09-06T10:43:21.342Z,19.50
2017-09-06T10:44:23.809Z,19.50
2017-09-06T10:45:26.299Z,19.40
2017-09-06T10:46:28.787Z,19.40
2017-09-06T10:47:31.372Z,19.50
2017-09-06T10:48:38.571Z,19.50
2017-09-06T10:49:41.062Z,19.50
2017-09-06T10:50:43.570Z,19.50
2017-09-06T10:51:46.049Z,19.50
2017-09-06T10:52:49.083Z,19.40
2017-09-06T10:53:51.613Z,19.40
2017-09-06T10:54:54.094Z,19.40
2017-09-06T10:55:56.608Z,19.40
2017-09-06T10:56:59.088Z,19.50
2017-09-06T10:58:01.598Z,19.50
2017-09-06T10:59:04.103Z,19.60
2017-09-06T11:00:06.626Z,19.80
2017-09-06T11:01:09.130Z,19.90
2017-09-06T11:02:12.381Z,20.00
2017-09-06T11:03:19.150Z,20.20
2017-09-06T11:04:21.677Z,20.50
2017-09-06T11:05:24.162Z,20.70
2017-09-06T11:06:26.653Z,20.90
2017-09-06T11:07:29.143Z,21.00
2017-09-06T11:08:31.683Z,21.10
2017-09-06T11:09:34.182Z,21.10
2017-09-06T11:10:36.683Z,21.20
2017-09-06T11:11:39.191Z,21.20
2017-09-06T11:12:41.767Z,21.20
2017-09-06T11:13:44.279Z,21.20
2017-09-06T11:14:46.839Z,21.10
2017-09-06T11:15:49.377Z,21.10
2017-09-06T11:16:51.946Z,21.10
2017-09-06T11:17:54.475Z,21.20
2017-09-06T11:18:57.082Z,21.30
2017-09-06T11:19:59.631Z,21.40
2017-09-06T11:21:02.153Z,21.60
2017-09-06T11:22:04.659Z,21.80
2017-09-06T11:23:07.243Z,21.80
2017-09-06T11:24:10.910Z,21.90
2017-09-06T11:25:13.460Z,22.00
2017-09-06T11:26:16.014Z,22.10
2017-09-06T11:27:18.555Z,22.10
2017-09-06T11:28:21.031Z,22.20
2017-09-06T11:29:23.570Z,22.20
2017-09-06T11:30:26.786Z,22.30
2017-09-06T11:31:29.314Z,22.30
2017-09-06T11:32:31.839Z,22.30
2017-09-06T11:33:34.369Z,22.30
2017-09-06T11:34:36.846Z,22.30
2017-09-06T11:35:39.365Z,22.10
2017-09-06T11:36:41.859Z,22.10
2017-09-06T11:37:44.388Z,22.00
2017-09-06T11:38:46.913Z,21.90
2017-09-06T11:39:49.432Z,21.80
2017-09-06T11:40:51.938Z,21.70
2017-09-06T11:41:54.478Z,21.70
2017-09-06T11:42:57.020Z,21.70
2017-09-06T11:44:03.930Z,21.80
2017-09-06T11:45:07.495Z,21.80
2017-09-06T11:46:10.778Z,21.80
2017-09-06T11:47:13.284Z,21.70
2017-09-06T11:48:15.815Z,21.60
2017-09-06T11:49:22.566Z,21.70
2017-09-06T11:50:25.082Z,21.70
2017-09-06T11:51:27.610Z,21.70
2017-09-06T11:52:31.004Z,21.70
2017-09-06T11:53:33.540Z,21.80
2017-09-06T11:54:36.043Z,21.80
2017-09-06T11:55:38.578Z,21.80
2017-09-06T11:56:41.091Z,21.80
2017-09-06T11:57:43.604Z,21.80
2017-09-06T11:58:46.155Z,21.80
2017-09-06T11:59:48.667Z,21.70
2017-09-06T12:00:51.207Z,21.80
2017-09-06T12:01:53.722Z,21.80
2017-09-06T12:02:56.215Z,21.90
2017-09-06T12:03:58.746Z,22.00
2017-09-06T12:05:01.271Z,21.90
2017-09-06T12:06:03.792Z,21.80
2017-09-06T12:07:06.552Z,21.60
2017-09-06T12:08:09.081Z,21.60
2017-09-06T12:09:11.662Z,21.50
2017-09-06T12:10:14.204Z,21.40
2017-09-06T12:11:16.719Z,21.30
2017-09-06T12:12:23.339Z,21.30
2017-09-06T12:13:25.846Z,21.40
2017-09-06T12:14:28.363Z,21.40
2017-09-06T12:15:30.851Z,21.50
2017-09-06T12:16:33.402Z,21.50
2017-09-06T12:17:35.916Z,21.40
2017-09-06T12:18:38.424Z,21.30
2017-09-06T12:19:40.910Z,21.20
2017-09-06T12:20:43.415Z,21.20
2017-09-06T12:21:50.223Z,21.30
2017-09-06T12:22:52.739Z,21.30
2017-09-06T12:23:55.243Z,21.40
2017-09-06T12:24:57.758Z,21.50
2017-09-06T12:26:00.297Z,21.50
2017-09-06T12:27:02.824Z,21.70
2017-09-06T12:28:06.289Z,21.80
2017-09-06T12:29:08.829Z,22.00
2017-09-06T12:30:11.417Z,22.10
2017-09-06T12:31:14.052Z,22.20
2017-09-06T12:32:16.584Z,22.30
2017-09-06T12:33:19.338Z,22.30
2017-09-06T12:34:21.880Z,22.40
2017-09-06T12:35:24.989Z,22.30
2017-09-06T12:36:27.561Z,22.40
2017-09-06T12:37:30.136Z,22.30
2017-09-06T12:38:33.305Z,22.20
2017-09-06T12:39:39.910Z,22.10
2017-09-06T12:40:43.340Z,22.00
2017-09-06T12:41:46.433Z,21.90
2017-09-06T12:42:48.978Z,21.80
2017-09-06T12:43:51.514Z,21.50
2017-09-06T12:44:56.820Z,21.40
2017-09-06T12:46:00.260Z,21.20
2017-09-06T12:47:02.956Z,21.00
2017-09-06T12:48:05.520Z,20.90
2017-09-06T12:49:08.085Z,20.70
2017-09-06T12:50:11.586Z,20.50
2017-09-06T12:51:14.294Z,20.40
2017-09-06T12:52:16.800Z,20.20
2017-09-06T12:53:19.460Z,20.10
2017-09-06T12:54:21.970Z,20.00
2017-09-06T12:55:24.768Z,19.90
2017-09-06T12:56:27.357Z,19.90
2017-09-06T12:57:29.872Z,19.90
2017-09-06T12:58:32.440Z,20.00
2017-09-06T12:59:39.506Z,20.10
2017-09-06T13:00:42.018Z,20.10
2017-09-06T13:01:44.535Z,20.10
2017-09-06T13:02:47.044Z,20.20
2017-09-06T13:03:53.553Z,20.20
2017-09-06T13:04:56.062Z,20.20
2017-09-06T13:05:58.628Z,20.30
2017-09-06T13:07:02.039Z,20.30
2017-09-06T13:08:04.604Z,20.30
2017-09-06T13:09:07.279Z,20.30
2017-09-06T13:10:14.275Z,20.40
2017-09-06T13:11:16.927Z,20.50
2017-09-06T13:12:25.801Z,20.60
2017-09-06T13:13:29.479Z,20.70
2017-09-06T13:14:32.111Z,20.80
2017-09-06T13:15:35.505Z,20.80
2017-09-06T13:16:38.111Z,20.80
2017-09-06T13:17:45.971Z,20.70
2017-09-06T13:18:50.273Z,20.60
2017-09-06T13:19:53.408Z,20.40
2017-09-06T13:20:56.844Z,20.20
2017-09-06T13:22:01.083Z,20.00
2017-09-06T13:23:04.331Z,19.80
2017-09-06T13:24:13.856Z,19.50
2017-09-06T13:25:18.956Z,19.20
2017-09-06T13:26:27.327Z,18.90
2017-09-06T13:27:31.466Z,18.70
2017-09-06T13:28:34.425Z,18.40
2017-09-06T13:29:41.518Z,18.20